Historique des mesures à Cassis (13260), France
Quotidien Résumé Décembre 27, 2017 Unités:  Métrique    US   Métrique/US
« Précédent (Jour)
Suivant (Jour) »
Quotidien Hebdomadaire Mensuel Annuel Période au choix
  Maximum: Minimum: Moyenne:
Température: TemperatureC °C 6.5 °C 8.9 °C
Point de rosée: DewpointC °C -1.9 °C 4.8 °C
Humidité: Humidity % 55 % 72 %
Vitesse du vent: 0 km/h 0 km/h 4.3 km/h
Rafales: 0 km/h - -
Vent:- - West
Pression: PressurehPa hPa 989.1 hPa -
Précipitations: 6.6 mm    
Historical Graphs
 
 
Mesures pour : Décembre 27, 2017
Heure Temperature Point de rosée Pression Vent Vitesse du vent Rafales Humidité Pluie (par heure) Conditions
TemperatureC °C DewpointC °C PressurehPa hPa Calm     Humidity % HourlyPrecipMM mm SoftwareType W/m2
00:10 9.9 °C 7.4 °C 1002.6 hPa Calm     85 % 0.0 mm open2300-1.11 W/m2
01:10 10.0 °C 7.6 °C 1000.6 hPa Calm     85 % 0.0 mm open2300-1.11 W/m2
02:10 10.1 °C 7.7 °C 998.9 hPa Calm     85 % 0.0 mm open2300-1.11 W/m2
03:10 9.8 °C 7.5 °C 996.5 hPa Calm     86 % 0.0 mm open2300-1.11 W/m2
05:10 9.9 °C 7.4 °C 994.1 hPa Calm   14 km/h 85 % 0.0 mm open2300-1.11 W/m2
06:10 10.1 °C 7.7 °C 992.8 hPa SSW 2.3 km/h 2.3 km/h 85 % 0.5 mm open2300-1.11 W/m2
07:10 9.4 °C 7.0 °C 991.4 hPa Calm     85 % 2.0 mm open2300-1.11 W/m2
08:10 9.3 °C 7.1 °C 990.7 hPa Calm     86 % 1.0 mm open2300-1.11 W/m2
09:10 9.2 °C 7.1 °C 990.7 hPa Calm     87 % 0.5 mm open2300-1.11 W/m2
10:10 9.5 °C 7.2 °C 990.7 hPa Calm     86 % 0.0 mm open2300-1.11 W/m2
11:10 9.8 °C 7.0 °C 991.1 hPa Calm     83 % 0.0 mm open2300-1.11 W/m2
12:10 10.3 °C 7.0 °C 990.7 hPa Calm     80 % 0.0 mm open2300-1.11 W/m2
13:10 10.3 °C 6.2 °C 990.1 hPa Calm     76 % 0.0 mm open2300-1.11 W/m2
14:10 10.9 °C 6.7 °C 989.7 hPa Calm   4.2 km/h 75 % 0.0 mm open2300-1.11 W/m2
15:11 10.9 °C 6.7 °C 989.1 hPa NW 3.4 km/h 6.4 km/h 75 % 0.0 mm open2300-1.11 W/m2
16:10 10.4 °C 5.0 °C 989.4 hPa NNE 15 km/h 15 km/h 69 % 0.0 mm open2300-1.11 W/m2
17:10 9.4 °C 2.1 °C 990.4 hPa NNW 19.6 km/h 33.2 km/h 60 % 0.0 mm open2300-1.11 W/m2
18:10 8.4 °C 2.6 °C 991.1 hPa NW 14.5 km/h 39.9 km/h 67 % 0.0 mm open2300-1.11 W/m2
19:10 8.2 °C 1.3 °C 992.1 hPa NW 37.5 km/h 68.9 km/h 62 % 0.0 mm open2300-1.11 W/m2
20:10 7.6 °C 0.6 °C 993.1 hPa Calm   15.6 km/h 61 % 0.0 mm open2300-1.11 W/m2
21:11 7.5 °C -0.3 °C 993.1 hPa Calm   15.6 km/h 58 % 0.0 mm open2300-1.11 W/m2
22:10 7.1 °C -1.1 °C 993.5 hPa Calm     56 % 0.0 mm open2300-1.11 W/m2
23:10 6.5 °C -1.9 °C 993.8 hPa NNW 13.2 km/h 59.5 km/h 55 % 0.0 mm open2300-1.11 W/m2
Observations météo à CASSIS
WU-History script by Weather Underground - 1 mb